createdAt,value
2023-05-14T00:00:37.666Z,14.68
2023-05-14T00:03:04.800Z,14.72
2023-05-14T00:05:31.739Z,14.73
2023-05-14T00:07:59.584Z,14.73
2023-05-14T00:10:27.703Z,14.75
2023-05-14T00:12:54.671Z,14.74
2023-05-14T00:15:21.733Z,14.75
2023-05-14T00:17:48.708Z,14.78
2023-05-14T00:20:15.611Z,14.78
2023-05-14T00:22:42.581Z,14.74
2023-05-14T00:25:09.820Z,14.71
2023-05-14T00:27:37.971Z,14.66
2023-05-14T00:30:09.146Z,14.60
2023-05-14T00:32:36.333Z,14.62
2023-05-14T00:35:04.450Z,14.62
2023-05-14T00:37:31.678Z,14.63
2023-05-14T00:39:58.782Z,14.65
2023-05-14T00:42:27.182Z,14.65
2023-05-14T00:44:54.158Z,14.67
2023-05-14T00:47:21.265Z,14.70
2023-05-14T00:49:48.269Z,14.70
2023-05-14T00:52:16.678Z,14.70
2023-05-14T00:54:44.125Z,14.69
2023-05-14T00:57:11.128Z,14.67
2023-05-14T00:59:40.598Z,14.63
2023-05-14T01:02:08.255Z,14.64
2023-05-14T01:04:35.425Z,14.62
2023-05-14T01:07:24.111Z,14.59
2023-05-14T01:10:10.624Z,14.57
2023-05-14T01:12:45.851Z,14.56
2023-05-14T01:15:22.051Z,14.55
2023-05-14T01:17:54.490Z,14.55
2023-05-14T01:20:22.259Z,14.55
2023-05-14T01:22:49.272Z,14.52
2023-05-14T01:25:16.117Z,14.53
2023-05-14T01:27:49.100Z,14.52
2023-05-14T01:30:31.980Z,14.51
2023-05-14T01:33:03.180Z,14.50
2023-05-14T01:35:31.089Z,14.48
2023-05-14T01:38:01.138Z,14.49
2023-05-14T01:40:28.498Z,14.51
2023-05-14T01:42:56.813Z,14.49
2023-05-14T01:45:27.023Z,14.50
2023-05-14T01:47:54.102Z,14.50
2023-05-14T01:50:21.272Z,14.49
2023-05-14T01:52:48.521Z,14.50
2023-05-14T01:55:16.028Z,14.51
2023-05-14T01:57:43.000Z,14.54
2023-05-14T02:00:11.049Z,14.54
2023-05-14T02:02:41.211Z,14.54
2023-05-14T02:05:11.753Z,14.55
2023-05-14T02:07:38.873Z,14.53
2023-05-14T02:10:06.578Z,14.52
2023-05-14T02:12:33.954Z,14.51
2023-05-14T02:15:00.901Z,14.51
2023-05-14T02:17:28.124Z,14.49
2023-05-14T02:19:55.069Z,14.44
2023-05-14T02:22:22.050Z,14.40
2023-05-14T02:24:49.794Z,14.39
2023-05-14T02:27:18.250Z,14.35
2023-05-14T02:29:45.295Z,14.29
2023-05-14T02:32:12.191Z,14.28
2023-05-14T02:34:39.361Z,14.24
2023-05-14T02:37:06.537Z,14.23
2023-05-14T02:39:33.372Z,14.21
2023-05-14T02:42:00.348Z,14.20
2023-05-14T02:44:27.125Z,14.21
2023-05-14T02:46:54.052Z,14.21
2023-05-14T02:49:21.060Z,14.22
2023-05-14T02:51:47.902Z,14.22
2023-05-14T02:54:16.519Z,14.21
2023-05-14T02:56:43.488Z,14.22
2023-05-14T02:59:10.679Z,14.23
2023-05-14T03:01:37.987Z,14.26
2023-05-14T03:04:05.554Z,14.25
2023-05-14T03:06:32.459Z,14.26
2023-05-14T03:08:59.425Z,14.19
2023-05-14T03:11:26.386Z,14.20
2023-05-14T03:13:53.312Z,14.18
2023-05-14T03:16:20.406Z,14.19
2023-05-14T03:18:47.293Z,14.20
2023-05-14T03:21:14.177Z,14.19
2023-05-14T03:23:41.174Z,14.18
2023-05-14T03:26:08.433Z,14.17
2023-05-14T03:28:35.526Z,14.15
2023-05-14T03:31:02.432Z,14.11
2023-05-14T03:33:31.217Z,14.09
2023-05-14T03:35:58.159Z,14.10
2023-05-14T03:38:24.995Z,14.10
2023-05-14T03:40:51.926Z,14.08
2023-05-14T03:43:18.800Z,14.10
2023-05-14T03:45:46.191Z,14.10
2023-05-14T03:48:13.247Z,14.13
2023-05-14T03:50:40.271Z,14.17
2023-05-14T03:53:07.159Z,14.18
2023-05-14T03:55:34.113Z,14.21
2023-05-14T03:58:02.512Z,14.22
2023-05-14T04:00:29.706Z,14.22
2023-05-14T04:02:56.737Z,14.20
2023-05-14T04:05:24.341Z,14.20
2023-05-14T04:07:52.627Z,14.21
2023-05-14T04:10:20.588Z,14.24
2023-05-14T04:12:47.467Z,14.27
2023-05-14T04:15:14.491Z,14.25
2023-05-14T04:17:42.751Z,14.24
2023-05-14T04:20:10.160Z,14.25
2023-05-14T04:22:37.064Z,14.25
2023-05-14T04:25:04.019Z,14.26
2023-05-14T04:27:31.026Z,14.29
2023-05-14T04:29:58.481Z,14.36
2023-05-14T04:32:25.815Z,14.48
2023-05-14T04:34:52.777Z,14.63
2023-05-14T04:37:19.611Z,14.87
2023-05-14T04:39:46.456Z,15.17
2023-05-14T04:42:13.604Z,15.46
2023-05-14T04:44:40.589Z,15.63
2023-05-14T04:47:07.730Z,15.76
2023-05-14T04:49:34.608Z,16.02
2023-05-14T04:52:02.012Z,16.11
2023-05-14T04:54:29.060Z,16.14
2023-05-14T04:56:56.074Z,16.16
2023-05-14T04:59:22.987Z,16.01
2023-05-14T05:01:49.958Z,16.06
2023-05-14T05:04:16.931Z,16.03
2023-05-14T05:06:43.945Z,15.98
2023-05-14T05:09:10.825Z,15.87
2023-05-14T05:11:38.830Z,15.80
2023-05-14T05:14:05.764Z,15.76
2023-05-14T05:16:32.833Z,15.65
2023-05-14T05:18:59.869Z,15.56
2023-05-14T05:21:26.986Z,15.52
2023-05-14T05:23:53.892Z,15.41
2023-05-14T05:26:22.286Z,15.32
2023-05-14T05:28:49.147Z,15.30
2023-05-14T05:31:18.306Z,15.36
2023-05-14T05:33:46.786Z,15.40
2023-05-14T05:36:13.615Z,15.54
2023-05-14T05:38:40.561Z,15.82
2023-05-14T05:41:07.635Z,16.29
2023-05-14T05:43:34.603Z,16.75
2023-05-14T05:46:01.727Z,17.22
2023-05-14T05:48:28.642Z,17.60
2023-05-14T05:50:55.624Z,17.85
2023-05-14T05:53:22.498Z,18.20
2023-05-14T05:55:51.676Z,18.58
2023-05-14T05:58:19.515Z,19.17
2023-05-14T06:00:47.235Z,19.73
2023-05-14T06:03:14.138Z,20.17
2023-05-14T06:05:41.178Z,20.35
2023-05-14T06:08:08.215Z,20.45
2023-05-14T06:10:36.310Z,20.45
2023-05-14T06:13:03.204Z,20.43
2023-05-14T06:15:30.074Z,20.36
2023-05-14T06:17:57.048Z,20.39
2023-05-14T06:20:24.362Z,20.39
2023-05-14T06:22:51.513Z,20.58
2023-05-14T06:25:18.644Z,20.48
2023-05-14T06:27:45.564Z,20.70
2023-05-14T06:30:13.218Z,20.60
2023-05-14T06:32:40.133Z,20.61
2023-05-14T06:35:07.667Z,20.39
2023-05-14T06:37:34.733Z,20.09
2023-05-14T06:40:01.994Z,20.02
2023-05-14T06:42:28.812Z,19.61
2023-05-14T06:44:56.136Z,19.63
2023-05-14T06:47:23.034Z,19.55
2023-05-14T06:49:50.082Z,19.65
2023-05-14T06:52:17.088Z,19.59
2023-05-14T06:54:43.986Z,19.75
2023-05-14T06:57:10.956Z,19.63
2023-05-14T06:59:38.135Z,19.47
2023-05-14T07:02:05.049Z,19.63
2023-05-14T07:04:32.102Z,19.87
2023-05-14T07:06:59.052Z,19.97
2023-05-14T07:09:25.895Z,20.14
2023-05-14T07:11:52.705Z,20.53
2023-05-14T07:14:19.657Z,21.23
2023-05-14T07:16:47.112Z,21.73
2023-05-14T07:19:14.289Z,22.06
2023-05-14T07:21:41.518Z,22.40
2023-05-14T07:24:08.632Z,24.23
2023-05-14T07:26:35.460Z,26.01
2023-05-14T07:29:02.346Z,27.69
2023-05-14T07:31:29.274Z,28.85
2023-05-14T07:33:56.595Z,29.79
2023-05-14T07:36:24.078Z,30.93
2023-05-14T07:38:51.113Z,31.66
2023-05-14T07:41:18.097Z,30.85
2023-05-14T07:43:44.992Z,29.76
2023-05-14T07:46:12.069Z,29.22
2023-05-14T07:48:39.017Z,27.90
2023-05-14T07:51:05.972Z,27.57
2023-05-14T07:53:32.939Z,27.14
2023-05-14T07:56:00.241Z,26.85
2023-05-14T07:58:28.979Z,26.56
2023-05-14T08:00:56.685Z,26.36
2023-05-14T08:03:23.896Z,26.09
2023-05-14T08:05:51.904Z,25.73
2023-05-14T08:08:18.872Z,25.36
2023-05-14T08:10:45.861Z,25.04
2023-05-14T08:13:12.784Z,24.72
2023-05-14T08:15:39.645Z,24.31
2023-05-14T08:18:06.582Z,24.15
2023-05-14T08:20:33.475Z,23.95
2023-05-14T08:23:00.456Z,24.18
2023-05-14T08:25:27.293Z,24.39
2023-05-14T08:27:54.371Z,24.60
2023-05-14T08:30:23.068Z,25.02
2023-05-14T08:32:50.490Z,25.35
2023-05-14T08:35:18.446Z,25.28
2023-05-14T08:37:45.744Z,25.13
2023-05-14T08:40:13.069Z,25.43
2023-05-14T08:42:45.048Z,25.86
2023-05-14T08:45:25.743Z,25.76
2023-05-14T08:47:53.326Z,26.10
2023-05-14T08:50:23.013Z,26.60
2023-05-14T08:52:51.581Z,26.86
2023-05-14T08:55:19.166Z,27.12
2023-05-14T08:57:46.504Z,27.22
2023-05-14T09:00:15.117Z,27.50
2023-05-14T09:02:42.485Z,27.38
2023-05-14T09:05:09.928Z,27.69
2023-05-14T09:07:38.081Z,27.88
2023-05-14T09:10:05.366Z,28.38
2023-05-14T09:12:32.298Z,28.41
2023-05-14T09:14:59.191Z,28.56
2023-05-14T09:17:27.923Z,28.67
2023-05-14T09:19:55.062Z,29.09
2023-05-14T09:22:22.556Z,29.23
2023-05-14T09:25:09.897Z,29.39
2023-05-14T09:27:36.916Z,28.99
2023-05-14T09:30:13.889Z,28.77
2023-05-14T09:32:50.692Z,28.86
2023-05-14T09:35:19.896Z,29.12
2023-05-14T09:37:51.333Z,29.32
2023-05-14T09:40:20.743Z,29.32
2023-05-14T09:42:49.228Z,28.52
2023-05-14T09:45:17.165Z,28.56
2023-05-14T09:47:45.151Z,28.39
2023-05-14T09:50:12.706Z,28.12
2023-05-14T09:52:39.756Z,27.64
2023-05-14T09:55:08.535Z,27.45
2023-05-14T09:57:35.588Z,27.96
2023-05-14T10:00:02.610Z,27.56
2023-05-14T10:02:41.305Z,27.74
2023-05-14T10:05:13.365Z,26.62
2023-05-14T10:07:47.952Z,26.27
2023-05-14T10:10:20.340Z,26.38
2023-05-14T10:13:04.707Z,26.40
2023-05-14T10:15:42.410Z,25.68
2023-05-14T10:18:16.401Z,25.48
2023-05-14T10:20:44.236Z,25.47
2023-05-14T10:23:13.165Z,25.54
2023-05-14T10:25:40.885Z,25.28
2023-05-14T10:28:07.943Z,24.87
2023-05-14T10:30:34.847Z,25.24
2023-05-14T10:33:16.715Z,25.72
2023-05-14T10:36:05.841Z,26.12
2023-05-14T10:38:34.592Z,26.46
2023-05-14T10:41:04.013Z,26.66
2023-05-14T10:43:36.408Z,26.46
2023-05-14T10:46:04.315Z,26.43
2023-05-14T10:48:32.379Z,26.62
2023-05-14T10:50:59.913Z,26.78
2023-05-14T10:53:43.165Z,26.76
2023-05-14T10:56:12.346Z,26.80
2023-05-14T10:58:40.747Z,26.99
2023-05-14T11:01:08.900Z,27.17
2023-05-14T11:03:43.216Z,27.15
2023-05-14T11:06:11.802Z,26.96
2023-05-14T11:08:39.046Z,26.94
2023-05-14T11:11:06.953Z,26.78
2023-05-14T11:13:34.751Z,26.41
2023-05-14T11:16:15.158Z,26.13
2023-05-14T11:19:00.582Z,25.65
2023-05-14T11:21:27.514Z,25.38
2023-05-14T11:23:55.619Z,25.12
2023-05-14T11:26:23.844Z,24.84
2023-05-14T11:28:50.982Z,24.63
2023-05-14T11:31:18.224Z,24.65
2023-05-14T11:33:45.134Z,24.56
2023-05-14T11:36:12.609Z,24.38
2023-05-14T11:38:51.410Z,24.25
2023-05-14T11:41:21.103Z,24.46
2023-05-14T11:43:48.172Z,24.38
2023-05-14T11:46:18.867Z,24.49
2023-05-14T11:48:46.013Z,24.54
2023-05-14T11:51:13.108Z,24.64
2023-05-14T11:53:40.045Z,24.91
2023-05-14T11:56:09.610Z,25.18
2023-05-14T11:58:37.612Z,25.47
2023-05-14T12:01:04.859Z,25.78
2023-05-14T12:03:31.837Z,26.05
2023-05-14T12:06:00.408Z,26.36
2023-05-14T12:08:29.593Z,26.82
2023-05-14T12:10:58.966Z,27.22
2023-05-14T12:13:31.352Z,27.45
2023-05-14T12:16:03.054Z,27.67
2023-05-14T12:18:32.604Z,27.51
2023-05-14T12:21:03.954Z,27.08
2023-05-14T12:23:32.629Z,26.70
2023-05-14T12:26:07.101Z,26.03
2023-05-14T12:28:39.125Z,25.33
2023-05-14T12:31:06.540Z,24.65
2023-05-14T12:33:33.446Z,24.61
2023-05-14T12:38:33.709Z,24.48
2023-05-14T12:41:00.886Z,24.59
2023-05-14T12:43:31.612Z,24.56
2023-05-14T12:45:58.558Z,24.46
2023-05-14T12:48:25.513Z,24.43
2023-05-14T12:50:52.565Z,24.42
2023-05-14T12:53:19.406Z,24.20
2023-05-14T12:55:46.804Z,24.30
2023-05-14T12:58:13.899Z,24.21
2023-05-14T13:00:40.892Z,24.42
2023-05-14T13:03:07.873Z,24.46
2023-05-14T13:05:34.850Z,24.61
2023-05-14T13:08:04.000Z,24.87
2023-05-14T13:10:30.975Z,25.04
2023-05-14T13:12:58.274Z,24.97
2023-05-14T13:15:25.481Z,24.92
2023-05-14T13:17:52.709Z,24.85
2023-05-14T13:20:19.794Z,24.73
2023-05-14T13:22:46.604Z,24.84
2023-05-14T13:25:13.525Z,24.90
2023-05-14T13:27:40.410Z,24.95
2023-05-14T13:30:07.854Z,25.14
2023-05-14T13:32:34.793Z,25.30
2023-05-14T13:35:01.704Z,25.53
2023-05-14T13:37:28.663Z,25.66
2023-05-14T13:39:55.635Z,25.60
2023-05-14T13:42:23.655Z,25.66
2023-05-14T13:44:50.869Z,25.63
2023-05-14T13:47:17.865Z,25.88
2023-05-14T13:49:44.757Z,26.27
2023-05-14T13:52:11.654Z,26.62
2023-05-14T13:54:38.489Z,27.09
2023-05-14T13:57:05.671Z,27.19
2023-05-14T13:59:32.573Z,27.05
2023-05-14T14:01:59.682Z,26.97
2023-05-14T14:04:29.080Z,26.76
2023-05-14T14:06:56.087Z,26.42
2023-05-14T14:09:23.499Z,25.98
2023-05-14T14:11:50.939Z,25.72
2023-05-14T14:14:18.553Z,25.38
2023-05-14T14:16:45.458Z,25.09
2023-05-14T14:19:12.384Z,24.91
2023-05-14T14:21:39.832Z,24.70
2023-05-14T14:24:06.905Z,24.44
2023-05-14T14:26:33.858Z,24.34
2023-05-14T14:29:00.786Z,24.15
2023-05-14T14:31:27.863Z,24.04
2023-05-14T14:33:54.706Z,23.88
2023-05-14T14:36:21.650Z,23.80
2023-05-14T14:38:48.461Z,23.69
2023-05-14T14:41:15.441Z,23.59
2023-05-14T14:43:43.543Z,23.45
2023-05-14T14:46:10.451Z,23.35
2023-05-14T14:48:37.848Z,23.09
2023-05-14T14:51:08.770Z,23.08
2023-05-14T14:53:37.179Z,23.02
2023-05-14T14:56:04.993Z,23.00
2023-05-14T14:58:32.682Z,22.76
2023-05-14T15:01:01.322Z,22.69
2023-05-14T15:03:29.008Z,22.51
2023-05-14T15:05:56.113Z,22.39
2023-05-14T15:08:26.846Z,22.35
2023-05-14T15:10:55.041Z,22.22
2023-05-14T15:13:22.126Z,22.06
2023-05-14T15:15:51.096Z,22.08
2023-05-14T15:18:18.084Z,22.07
2023-05-14T15:20:44.957Z,22.04
2023-05-14T15:23:11.820Z,22.03
2023-05-14T15:25:38.740Z,21.91
2023-05-14T15:28:08.617Z,21.87
2023-05-14T15:30:35.567Z,21.82
2023-05-14T15:33:02.773Z,21.76
2023-05-14T15:35:29.845Z,21.74
2023-05-14T15:37:59.746Z,21.70
2023-05-14T15:40:27.446Z,21.68
2023-05-14T15:42:54.681Z,21.68
2023-05-14T15:45:21.732Z,21.70
2023-05-14T15:47:48.704Z,21.74
2023-05-14T15:50:15.844Z,21.70
2023-05-14T15:52:42.777Z,21.67
2023-05-14T15:55:10.500Z,21.60
2023-05-14T15:57:37.544Z,21.52
2023-05-14T16:00:10.459Z,21.40
2023-05-14T16:02:39.311Z,21.43
2023-05-14T16:05:07.425Z,21.44
2023-05-14T16:07:34.567Z,21.45
2023-05-14T16:10:01.400Z,21.48
2023-05-14T16:12:28.484Z,21.43
2023-05-14T16:14:57.035Z,21.40
2023-05-14T16:17:24.216Z,21.31
2023-05-14T16:19:51.640Z,21.19
2023-05-14T16:22:19.838Z,21.08
2023-05-14T16:24:46.982Z,21.00
2023-05-14T16:27:14.493Z,20.95
2023-05-14T16:29:41.359Z,20.89
2023-05-14T16:32:08.307Z,20.87
2023-05-14T16:34:35.144Z,20.70
2023-05-14T16:37:02.005Z,20.64
2023-05-14T16:39:29.000Z,20.57
2023-05-14T16:41:55.911Z,20.54
2023-05-14T16:44:22.856Z,20.49
2023-05-14T16:46:49.811Z,20.46
2023-05-14T16:49:16.966Z,20.45
2023-05-14T16:51:43.970Z,20.46
2023-05-14T16:54:10.979Z,20.49
2023-05-14T16:56:37.925Z,20.50
2023-05-14T16:59:04.841Z,20.46
2023-05-14T17:01:32.265Z,20.43
2023-05-14T17:03:59.361Z,20.41
2023-05-14T17:06:26.206Z,20.32
2023-05-14T17:08:53.119Z,20.30
2023-05-14T17:11:21.133Z,20.24
2023-05-14T17:13:48.013Z,20.16
2023-05-14T17:16:15.000Z,20.16
2023-05-14T17:18:42.034Z,20.20
2023-05-14T17:21:08.953Z,20.22
2023-05-14T17:23:35.918Z,20.27
2023-05-14T17:26:02.959Z,20.27
2023-05-14T17:28:30.116Z,20.28
2023-05-14T17:30:58.326Z,20.26
2023-05-14T17:33:25.232Z,20.25
2023-05-14T17:35:52.321Z,20.22
2023-05-14T17:38:19.248Z,20.26
2023-05-14T17:40:46.148Z,20.29
2023-05-14T17:43:13.321Z,20.31
2023-05-14T17:45:53.087Z,20.36
2023-05-14T17:48:22.620Z,20.40
2023-05-14T17:50:49.988Z,20.43
2023-05-14T17:53:17.023Z,20.44
2023-05-14T17:55:44.140Z,20.47
2023-05-14T17:58:13.404Z,20.48
2023-05-14T18:00:40.805Z,20.49
2023-05-14T18:03:08.171Z,20.49
2023-05-14T18:05:35.456Z,20.50
2023-05-14T18:08:03.707Z,20.50
2023-05-14T18:10:30.643Z,20.53
2023-05-14T18:12:57.633Z,20.56
2023-05-14T18:15:25.859Z,20.60
2023-05-14T18:17:53.233Z,20.66
2023-05-14T18:20:20.709Z,20.71
2023-05-14T18:22:47.811Z,20.75
2023-05-14T18:25:14.843Z,20.75
2023-05-14T18:27:45.340Z,20.77
2023-05-14T18:30:14.746Z,20.76
2023-05-14T18:32:44.563Z,20.76
2023-05-14T18:35:13.054Z,20.74
2023-05-14T18:37:40.964Z,20.73
2023-05-14T18:40:08.756Z,20.70
2023-05-14T18:42:35.846Z,20.69
2023-05-14T18:45:04.238Z,20.72
2023-05-14T18:47:31.885Z,20.72
2023-05-14T18:50:01.807Z,20.76
2023-05-14T18:52:29.292Z,20.76
2023-05-14T18:54:56.187Z,20.75
2023-05-14T18:57:23.547Z,20.73
2023-05-14T18:59:50.445Z,20.72
2023-05-14T19:02:17.380Z,20.68
2023-05-14T19:04:52.405Z,20.64
2023-05-14T19:07:20.993Z,20.62
2023-05-14T19:09:48.454Z,20.60
2023-05-14T19:12:15.454Z,20.59
2023-05-14T19:14:42.355Z,20.58
2023-05-14T19:17:09.253Z,20.57
2023-05-14T19:19:36.557Z,20.54
2023-05-14T19:22:03.846Z,20.49
2023-05-14T19:24:30.798Z,20.45
2023-05-14T19:26:57.764Z,20.44
2023-05-14T19:29:25.084Z,20.42
2023-05-14T19:31:52.113Z,20.39
2023-05-14T19:34:18.967Z,20.36
2023-05-14T19:36:45.874Z,20.31
2023-05-14T19:39:12.737Z,20.26
2023-05-14T19:41:39.682Z,20.17
2023-05-14T19:44:06.546Z,20.14
2023-05-14T19:46:33.756Z,20.10
2023-05-14T19:49:00.797Z,20.05
2023-05-14T19:51:28.789Z,20.03
2023-05-14T19:53:55.775Z,20.01
2023-05-14T19:56:24.246Z,19.99
2023-05-14T19:58:52.032Z,19.96
2023-05-14T20:01:19.385Z,19.92
2023-05-14T20:03:47.210Z,19.88
2023-05-14T20:06:14.198Z,19.85
2023-05-14T20:08:41.180Z,19.82
2023-05-14T20:11:08.089Z,19.83
2023-05-14T20:13:36.546Z,19.84
2023-05-14T20:16:03.604Z,19.85
2023-05-14T20:18:31.290Z,19.86
2023-05-14T20:20:58.485Z,19.87
2023-05-14T20:23:25.452Z,19.89
2023-05-14T20:25:52.419Z,19.92
2023-05-14T20:28:19.407Z,19.92
2023-05-14T20:30:46.324Z,19.95
2023-05-14T20:33:13.791Z,19.90
2023-05-14T20:35:43.762Z,19.89
2023-05-14T20:38:12.700Z,19.84
2023-05-14T20:40:40.219Z,19.82
2023-05-14T20:43:07.361Z,19.77
2023-05-14T20:45:34.335Z,19.74
2023-05-14T20:48:01.541Z,19.72
2023-05-14T20:50:28.509Z,19.71
2023-05-14T20:52:55.730Z,19.70
2023-05-14T20:55:23.458Z,19.68
2023-05-14T20:57:50.641Z,19.65
2023-05-14T21:00:17.985Z,19.63
2023-05-14T21:02:45.522Z,19.61
2023-05-14T21:05:13.902Z,19.57
2023-05-14T21:07:40.986Z,19.55
2023-05-14T21:10:09.382Z,19.54
2023-05-14T21:12:36.440Z,19.53
2023-05-14T21:15:03.446Z,19.48
2023-05-14T21:17:30.670Z,19.44
2023-05-14T21:19:57.860Z,19.39
2023-05-14T21:22:24.843Z,19.36
2023-05-14T21:24:51.740Z,19.30
2023-05-14T21:27:19.063Z,19.26
2023-05-14T21:29:46.614Z,19.23
2023-05-14T21:32:13.656Z,19.20
2023-05-14T21:34:40.582Z,19.18
2023-05-14T21:37:08.031Z,19.17
2023-05-14T21:39:34.953Z,19.15
2023-05-14T21:42:01.862Z,19.15
2023-05-14T21:44:28.708Z,19.14
2023-05-14T21:46:55.734Z,19.12
2023-05-14T21:49:22.631Z,19.10
2023-05-14T21:51:53.159Z,19.08
2023-05-14T21:54:20.978Z,19.07
2023-05-14T21:56:48.377Z,19.02
2023-05-14T21:59:15.451Z,18.96
2023-05-14T22:04:12.951Z,18.79
2023-05-14T22:06:40.305Z,18.65
2023-05-14T22:09:07.177Z,18.50
2023-05-14T22:11:34.007Z,18.39
2023-05-14T22:14:00.911Z,18.24
2023-05-14T22:16:27.782Z,18.02
2023-05-14T22:18:54.670Z,17.88
2023-05-14T22:21:21.620Z,17.75
2023-05-14T22:23:49.900Z,17.63
2023-05-14T22:26:18.239Z,17.49
2023-05-14T22:28:45.600Z,17.37
2023-05-14T22:31:12.490Z,17.34
2023-05-14T22:33:39.401Z,17.33
2023-05-14T22:36:07.165Z,17.33
2023-05-14T22:38:34.484Z,17.33
2023-05-14T22:41:01.433Z,17.39
2023-05-14T22:43:28.379Z,17.40
2023-05-14T22:45:55.681Z,17.54
2023-05-14T22:48:22.531Z,17.61
2023-05-14T22:50:49.368Z,17.61
2023-05-14T22:53:16.304Z,17.65
2023-05-14T22:55:43.189Z,17.64
2023-05-14T22:58:10.420Z,17.66
2023-05-14T23:00:37.307Z,17.76
2023-05-14T23:03:04.305Z,17.85
2023-05-14T23:05:31.316Z,17.89
2023-05-14T23:07:58.173Z,17.99
2023-05-14T23:10:25.165Z,18.04
2023-05-14T23:12:52.020Z,18.07
2023-05-14T23:15:18.965Z,18.08
2023-05-14T23:17:45.981Z,18.02
2023-05-14T23:20:13.162Z,17.93
2023-05-14T23:22:40.430Z,17.84
2023-05-14T23:25:07.843Z,17.77
2023-05-14T23:27:35.526Z,17.67
2023-05-14T23:30:03.812Z,17.67
2023-05-14T23:32:30.946Z,17.73
2023-05-14T23:34:57.909Z,17.72
2023-05-14T23:37:24.787Z,17.75
2023-05-14T23:39:52.706Z,17.77
2023-05-14T23:42:19.756Z,17.76
2023-05-14T23:44:46.585Z,17.74
2023-05-14T23:47:13.610Z,17.72
2023-05-14T23:49:40.847Z,17.70
2023-05-14T23:52:07.917Z,17.65
2023-05-14T23:54:34.900Z,17.58
2023-05-14T23:57:03.326Z,17.44
2023-05-14T23:59:30.192Z,17.33
